sensor_id;sensor_type;location;lat;lon;timestamp;P1;durP1;ratioP1;P2;durP2;ratioP2
37845;SDS011;23686;49.828;8.702;2023-01-10T00:00:07;3.50;;;2.00;;
37845;SDS011;23686;49.828;8.702;2023-01-10T00:02:33;9.93;;;2.15;;
37845;SDS011;23686;49.828;8.702;2023-01-10T00:04:58;2.92;;;1.67;;
37845;SDS011;23686;49.828;8.702;2023-01-10T00:07:24;3.97;;;1.50;;
37845;SDS011;23686;49.828;8.702;2023-01-10T00:09:49;2.47;;;1.70;;
37845;SDS011;23686;49.828;8.702;2023-01-10T00:12:15;1.90;;;1.20;;
37845;SDS011;23686;49.828;8.702;2023-01-10T00:14:59;2.83;;;1.52;;
37845;SDS011;23686;49.828;8.702;2023-01-10T00:17:24;2.42;;;1.50;;
37845;SDS011;23686;49.828;8.702;2023-01-10T00:19:50;3.22;;;1.85;;
37845;SDS011;23686;49.828;8.702;2023-01-10T00:22:15;1.65;;;1.40;;
37845;SDS011;23686;49.828;8.702;2023-01-10T00:24:43;6.30;;;1.48;;
37845;SDS011;23686;49.828;8.702;2023-01-10T00:27:09;3.22;;;1.83;;
37845;SDS011;23686;49.828;8.702;2023-01-10T00:29:36;4.50;;;2.10;;
37845;SDS011;23686;49.828;8.702;2023-01-10T00:32:02;2.55;;;1.60;;
37845;SDS011;23686;49.828;8.702;2023-01-10T00:34:28;1.85;;;1.40;;
37845;SDS011;23686;49.828;8.702;2023-01-10T00:36:55;1.73;;;1.20;;
37845;SDS011;23686;49.828;8.702;2023-01-10T00:39:20;1.98;;;1.30;;
37845;SDS011;23686;49.828;8.702;2023-01-10T00:41:49;2.80;;;1.40;;
37845;SDS011;23686;49.828;8.702;2023-01-10T00:44:33;2.90;;;1.50;;
37845;SDS011;23686;49.828;8.702;2023-01-10T00:46:58;1.48;;;1.23;;
37845;SDS011;23686;49.828;8.702;2023-01-10T00:49:24;1.27;;;1.10;;
37845;SDS011;23686;49.828;8.702;2023-01-10T00:51:50;2.65;;;1.27;;
37845;SDS011;23686;49.828;8.702;2023-01-10T00:54:15;2.80;;;1.27;;
37845;SDS011;23686;49.828;8.702;2023-01-10T00:56:41;2.08;;;1.40;;
37845;SDS011;23686;49.828;8.702;2023-01-10T00:59:06;2.88;;;1.33;;
37845;SDS011;23686;49.828;8.702;2023-01-10T01:01:32;2.60;;;1.40;;
37845;SDS011;23686;49.828;8.702;2023-01-10T01:03:58;2.47;;;1.58;;
37845;SDS011;23686;49.828;8.702;2023-01-10T01:06:24;2.92;;;1.60;;
37845;SDS011;23686;49.828;8.702;2023-01-10T01:08:50;1.40;;;1.10;;
37845;SDS011;23686;49.828;8.702;2023-01-10T01:11:15;1.05;;;0.95;;
37845;SDS011;23686;49.828;8.702;2023-01-10T01:13:41;1.23;;;1.10;;
37845;SDS011;23686;49.828;8.702;2023-01-10T01:16:07;3.03;;;1.20;;
37845;SDS011;23686;49.828;8.702;2023-01-10T01:18:32;2.83;;;1.50;;
37845;SDS011;23686;49.828;8.702;2023-01-10T01:20:58;2.58;;;0.93;;
37845;SDS011;23686;49.828;8.702;2023-01-10T01:23:29;1.10;;;0.90;;
37845;SDS011;23686;49.828;8.702;2023-01-10T01:25:56;2.60;;;0.90;;
37845;SDS011;23686;49.828;8.702;2023-01-10T01:28:22;1.10;;;0.93;;
37845;SDS011;23686;49.828;8.702;2023-01-10T01:30:48;1.02;;;0.65;;
37845;SDS011;23686;49.828;8.702;2023-01-10T01:33:14;0.93;;;0.93;;
37845;SDS011;23686;49.828;8.702;2023-01-10T01:35:41;1.60;;;0.63;;
37845;SDS011;23686;49.828;8.702;2023-01-10T01:38:07;2.05;;;0.90;;
37845;SDS011;23686;49.828;8.702;2023-01-10T01:40:33;1.30;;;0.70;;
37845;SDS011;23686;49.828;8.702;2023-01-10T01:42:58;1.00;;;0.73;;
37845;SDS011;23686;49.828;8.702;2023-01-10T01:50:28;0.95;;;0.80;;
37845;SDS011;23686;49.828;8.702;2023-01-10T01:52:59;0.70;;;0.50;;
37845;SDS011;23686;49.828;8.702;2023-01-10T01:55:28;0.70;;;0.52;;
37845;SDS011;23686;49.828;8.702;2023-01-10T01:57:57;1.77;;;0.90;;
37845;SDS011;23686;49.828;8.702;2023-01-10T02:00:27;1.40;;;0.60;;
37845;SDS011;23686;49.828;8.702;2023-01-10T02:02:53;0.75;;;0.47;;
37845;SDS011;23686;49.828;8.702;2023-01-10T03:44:53;3.08;;;1.42;;
37845;SDS011;23686;49.828;8.702;2023-01-10T03:47:29;2.85;;;1.20;;
37845;SDS011;23686;49.828;8.702;2023-01-10T03:50:05;5.22;;;1.70;;
37845;SDS011;23686;49.828;8.702;2023-01-10T03:52:35;7.72;;;1.75;;
37845;SDS011;23686;49.828;8.702;2023-01-10T03:55:01;5.13;;;1.52;;
37845;SDS011;23686;49.828;8.702;2023-01-10T03:57:29;4.10;;;1.10;;
37845;SDS011;23686;49.828;8.702;2023-01-10T03:59:56;4.10;;;1.20;;
37845;SDS011;23686;49.828;8.702;2023-01-10T04:02:26;3.80;;;1.60;;
37845;SDS011;23686;49.828;8.702;2023-01-10T04:04:53;1.38;;;1.00;;
37845;SDS011;23686;49.828;8.702;2023-01-10T04:07:18;2.30;;;1.15;;
37845;SDS011;23686;49.828;8.702;2023-01-10T04:09:44;4.72;;;1.05;;
37845;SDS011;23686;49.828;8.702;2023-01-10T04:12:10;7.03;;;1.35;;
37845;SDS011;23686;49.828;8.702;2023-01-10T04:14:35;5.72;;;1.30;;
37845;SDS011;23686;49.828;8.702;2023-01-10T04:17:01;7.88;;;1.23;;
37845;SDS011;23686;49.828;8.702;2023-01-10T04:19:26;2.95;;;1.05;;
37845;SDS011;23686;49.828;8.702;2023-01-10T04:21:52;2.80;;;1.30;;
37845;SDS011;23686;49.828;8.702;2023-01-10T04:24:18;6.50;;;1.85;;
37845;SDS011;23686;49.828;8.702;2023-01-10T04:26:43;4.93;;;1.75;;
37845;SDS011;23686;49.828;8.702;2023-01-10T04:29:09;4.95;;;1.80;;
37845;SDS011;23686;49.828;8.702;2023-01-10T04:31:35;5.82;;;1.50;;
37845;SDS011;23686;49.828;8.702;2023-01-10T04:34:00;3.10;;;1.45;;
37845;SDS011;23686;49.828;8.702;2023-01-10T04:36:26;2.97;;;1.23;;
37845;SDS011;23686;49.828;8.702;2023-01-10T04:38:52;3.80;;;1.30;;
37845;SDS011;23686;49.828;8.702;2023-01-10T04:41:17;5.57;;;1.70;;
37845;SDS011;23686;49.828;8.702;2023-01-10T04:43:43;5.75;;;1.60;;
37845;SDS011;23686;49.828;8.702;2023-01-10T04:46:08;8.43;;;1.67;;
37845;SDS011;23686;49.828;8.702;2023-01-10T04:48:34;4.07;;;1.90;;
37845;SDS011;23686;49.828;8.702;2023-01-10T04:51:01;4.07;;;2.30;;
37845;SDS011;23686;49.828;8.702;2023-01-10T04:53:27;6.47;;;2.53;;
37845;SDS011;23686;49.828;8.702;2023-01-10T04:55:52;7.03;;;2.47;;
37845;SDS011;23686;49.828;8.702;2023-01-10T04:58:18;11.10;;;2.20;;
37845;SDS011;23686;49.828;8.702;2023-01-10T05:00:44;7.28;;;2.03;;
37845;SDS011;23686;49.828;8.702;2023-01-10T05:03:09;6.90;;;2.47;;
37845;SDS011;23686;49.828;8.702;2023-01-10T05:05:35;6.07;;;2.00;;
37845;SDS011;23686;49.828;8.702;2023-01-10T05:08:00;8.38;;;2.13;;
37845;SDS011;23686;49.828;8.702;2023-01-10T05:10:26;4.97;;;1.98;;
37845;SDS011;23686;49.828;8.702;2023-01-10T05:12:52;4.65;;;2.15;;
37845;SDS011;23686;49.828;8.702;2023-01-10T05:15:18;10.60;;;2.33;;
37845;SDS011;23686;49.828;8.702;2023-01-10T05:17:45;4.82;;;2.10;;
37845;SDS011;23686;49.828;8.702;2023-01-10T05:20:10;8.85;;;2.45;;
37845;SDS011;23686;49.828;8.702;2023-01-10T05:22:37;10.07;;;2.28;;
37845;SDS011;23686;49.828;8.702;2023-01-10T05:25:03;4.55;;;1.83;;
37845;SDS011;23686;49.828;8.702;2023-01-10T05:27:29;10.20;;;2.25;;
37845;SDS011;23686;49.828;8.702;2023-01-10T05:29:55;5.75;;;2.63;;
37845;SDS011;23686;49.828;8.702;2023-01-10T05:32:20;4.70;;;1.90;;
37845;SDS011;23686;49.828;8.702;2023-01-10T05:34:47;9.07;;;2.25;;
37845;SDS011;23686;49.828;8.702;2023-01-10T05:37:13;4.95;;;2.03;;
37845;SDS011;23686;49.828;8.702;2023-01-10T05:39:38;9.25;;;2.60;;
37845;SDS011;23686;49.828;8.702;2023-01-10T05:42:05;6.50;;;2.45;;
37845;SDS011;23686;49.828;8.702;2023-01-10T05:44:30;7.88;;;4.07;;
37845;SDS011;23686;49.828;8.702;2023-01-10T05:46:56;11.80;;;3.58;;
37845;SDS011;23686;49.828;8.702;2023-01-10T05:49:22;5.28;;;3.30;;
37845;SDS011;23686;49.828;8.702;2023-01-10T05:51:47;8.05;;;4.30;;
37845;SDS011;23686;49.828;8.702;2023-01-10T05:54:13;9.13;;;4.78;;
37845;SDS011;23686;49.828;8.702;2023-01-10T05:56:39;6.35;;;3.17;;
37845;SDS011;23686;49.828;8.702;2023-01-10T05:59:04;5.95;;;2.67;;
37845;SDS011;23686;49.828;8.702;2023-01-10T06:01:30;6.40;;;2.40;;
37845;SDS011;23686;49.828;8.702;2023-01-10T06:03:55;7.18;;;2.85;;
37845;SDS011;23686;49.828;8.702;2023-01-10T06:06:22;7.95;;;3.67;;
37845;SDS011;23686;49.828;8.702;2023-01-10T06:08:47;6.75;;;2.40;;
37845;SDS011;23686;49.828;8.702;2023-01-10T06:11:13;9.90;;;2.58;;
37845;SDS011;23686;49.828;8.702;2023-01-10T06:13:38;11.25;;;5.47;;
37845;SDS011;23686;49.828;8.702;2023-01-10T06:16:04;7.72;;;2.78;;
37845;SDS011;23686;49.828;8.702;2023-01-10T06:18:30;6.97;;;2.97;;
37845;SDS011;23686;49.828;8.702;2023-01-10T06:20:55;12.10;;;3.17;;
37845;SDS011;23686;49.828;8.702;2023-01-10T06:23:21;8.77;;;2.60;;
37845;SDS011;23686;49.828;8.702;2023-01-10T06:25:46;8.52;;;2.78;;
37845;SDS011;23686;49.828;8.702;2023-01-10T06:28:12;8.57;;;3.53;;
37845;SDS011;23686;49.828;8.702;2023-01-10T06:30:39;7.25;;;2.92;;
37845;SDS011;23686;49.828;8.702;2023-01-10T06:33:07;12.30;;;3.40;;
37845;SDS011;23686;49.828;8.702;2023-01-10T06:35:34;8.35;;;4.75;;
37845;SDS011;23686;49.828;8.702;2023-01-10T06:38:00;9.10;;;4.35;;
37845;SDS011;23686;49.828;8.702;2023-01-10T06:40:26;6.35;;;2.75;;
37845;SDS011;23686;49.828;8.702;2023-01-10T06:42:53;12.13;;;3.13;;
37845;SDS011;23686;49.828;8.702;2023-01-10T06:45:18;8.77;;;3.20;;
37845;SDS011;23686;49.828;8.702;2023-01-10T06:47:44;6.15;;;2.67;;
37845;SDS011;23686;49.828;8.702;2023-01-10T06:50:10;10.10;;;3.80;;
37845;SDS011;23686;49.828;8.702;2023-01-10T06:52:37;9.57;;;3.70;;
37845;SDS011;23686;49.828;8.702;2023-01-10T06:55:03;9.52;;;2.88;;
37845;SDS011;23686;49.828;8.702;2023-01-10T06:57:29;10.48;;;3.60;;
37845;SDS011;23686;49.828;8.702;2023-01-10T06:59:55;6.25;;;2.80;;
37845;SDS011;23686;49.828;8.702;2023-01-10T07:02:20;7.35;;;2.63;;
37845;SDS011;23686;49.828;8.702;2023-01-10T07:04:49;9.20;;;2.85;;
37845;SDS011;23686;49.828;8.702;2023-01-10T07:07:14;8.35;;;2.70;;
37845;SDS011;23686;49.828;8.702;2023-01-10T07:09:40;10.75;;;3.00;;
37845;SDS011;23686;49.828;8.702;2023-01-10T07:12:06;11.85;;;4.13;;
37845;SDS011;23686;49.828;8.702;2023-01-10T07:14:31;12.18;;;3.17;;
37845;SDS011;23686;49.828;8.702;2023-01-10T07:16:58;7.60;;;3.03;;
37845;SDS011;23686;49.828;8.702;2023-01-10T07:19:23;12.35;;;2.97;;
37845;SDS011;23686;49.828;8.702;2023-01-10T07:21:49;10.68;;;3.53;;
37845;SDS011;23686;49.828;8.702;2023-01-10T07:24:14;10.57;;;3.35;;
37845;SDS011;23686;49.828;8.702;2023-01-10T07:26:40;9.32;;;3.00;;
37845;SDS011;23686;49.828;8.702;2023-01-10T07:29:05;14.35;;;3.63;;
37845;SDS011;23686;49.828;8.702;2023-01-10T07:31:31;16.83;;;3.92;;
37845;SDS011;23686;49.828;8.702;2023-01-10T07:33:56;11.13;;;3.80;;
37845;SDS011;23686;49.828;8.702;2023-01-10T07:36:22;11.30;;;3.60;;
37845;SDS011;23686;49.828;8.702;2023-01-10T07:38:47;10.73;;;3.67;;
37845;SDS011;23686;49.828;8.702;2023-01-10T07:41:13;11.48;;;3.25;;
37845;SDS011;23686;49.828;8.702;2023-01-10T07:43:39;17.45;;;4.38;;
37845;SDS011;23686;49.828;8.702;2023-01-10T07:46:05;12.70;;;3.47;;
37845;SDS011;23686;49.828;8.702;2023-01-10T07:48:36;13.65;;;3.88;;
37845;SDS011;23686;49.828;8.702;2023-01-10T07:51:02;16.90;;;3.50;;
37845;SDS011;23686;49.828;8.702;2023-01-10T07:53:29;14.63;;;4.07;;
37845;SDS011;23686;49.828;8.702;2023-01-10T07:55:59;12.68;;;3.30;;
37845;SDS011;23686;49.828;8.702;2023-01-10T07:58:25;11.95;;;2.97;;
37845;SDS011;23686;49.828;8.702;2023-01-10T08:00:51;12.48;;;3.58;;
37845;SDS011;23686;49.828;8.702;2023-01-10T08:03:20;15.25;;;4.40;;
37845;SDS011;23686;49.828;8.702;2023-01-10T08:05:48;13.05;;;3.80;;
37845;SDS011;23686;49.828;8.702;2023-01-10T08:08:14;9.63;;;4.32;;
37845;SDS011;23686;49.828;8.702;2023-01-10T08:10:41;17.52;;;4.13;;
37845;SDS011;23686;49.828;8.702;2023-01-10T08:13:06;15.82;;;4.55;;
37845;SDS011;23686;49.828;8.702;2023-01-10T08:15:32;11.63;;;3.40;;
37845;SDS011;23686;49.828;8.702;2023-01-10T08:17:58;17.85;;;4.07;;
37845;SDS011;23686;49.828;8.702;2023-01-10T08:20:27;13.48;;;3.53;;
37845;SDS011;23686;49.828;8.702;2023-01-10T08:22:55;14.63;;;3.92;;
37845;SDS011;23686;49.828;8.702;2023-01-10T08:27:47;13.57;;;3.85;;
37845;SDS011;23686;49.828;8.702;2023-01-10T08:30:13;14.93;;;3.33;;
37845;SDS011;23686;49.828;8.702;2023-01-10T08:32:39;14.63;;;3.55;;
37845;SDS011;23686;49.828;8.702;2023-01-10T08:35:05;13.00;;;3.85;;
37845;SDS011;23686;49.828;8.702;2023-01-10T08:37:31;9.68;;;3.53;;
37845;SDS011;23686;49.828;8.702;2023-01-10T08:39:56;10.20;;;3.63;;
37845;SDS011;23686;49.828;8.702;2023-01-10T08:42:22;16.02;;;5.40;;
37845;SDS011;23686;49.828;8.702;2023-01-10T08:44:47;15.80;;;5.30;;
37845;SDS011;23686;49.828;8.702;2023-01-10T08:47:13;14.30;;;5.00;;
37845;SDS011;23686;49.828;8.702;2023-01-10T08:49:39;17.67;;;5.32;;
37845;SDS011;23686;49.828;8.702;2023-01-10T08:52:04;12.30;;;4.13;;
37845;SDS011;23686;49.828;8.702;2023-01-10T08:54:30;13.48;;;4.30;;
37845;SDS011;23686;49.828;8.702;2023-01-10T08:56:57;11.18;;;4.25;;
37845;SDS011;23686;49.828;8.702;2023-01-10T08:59:23;14.98;;;5.00;;
37845;SDS011;23686;49.828;8.702;2023-01-10T09:01:49;15.57;;;4.72;;
37845;SDS011;23686;49.828;8.702;2023-01-10T09:04:14;11.77;;;4.43;;
37845;SDS011;23686;49.828;8.702;2023-01-10T09:06:41;12.82;;;4.53;;
37845;SDS011;23686;49.828;8.702;2023-01-10T09:09:06;12.65;;;4.03;;
37845;SDS011;23686;49.828;8.702;2023-01-10T09:11:32;13.55;;;4.03;;
37845;SDS011;23686;49.828;8.702;2023-01-10T09:13:58;16.35;;;3.88;;
37845;SDS011;23686;49.828;8.702;2023-01-10T09:16:23;9.93;;;4.25;;
37845;SDS011;23686;49.828;8.702;2023-01-10T09:18:49;9.00;;;3.42;;
37845;SDS011;23686;49.828;8.702;2023-01-10T09:21:14;17.90;;;5.05;;
37845;SDS011;23686;49.828;8.702;2023-01-10T09:23:40;10.55;;;3.92;;
37845;SDS011;23686;49.828;8.702;2023-01-10T09:26:07;12.80;;;4.22;;
37845;SDS011;23686;49.828;8.702;2023-01-10T09:28:33;16.23;;;3.92;;
37845;SDS011;23686;49.828;8.702;2023-01-10T09:30:58;15.35;;;3.80;;
37845;SDS011;23686;49.828;8.702;2023-01-10T09:33:25;10.68;;;3.33;;
37845;SDS011;23686;49.828;8.702;2023-01-10T09:35:50;9.80;;;3.33;;
37845;SDS011;23686;49.828;8.702;2023-01-10T09:38:16;6.15;;;2.47;;
37845;SDS011;23686;49.828;8.702;2023-01-10T09:51:32;13.15;;;3.38;;
37845;SDS011;23686;49.828;8.702;2023-01-10T09:54:00;14.65;;;3.38;;
37845;SDS011;23686;49.828;8.702;2023-01-10T09:56:29;9.32;;;2.97;;
37845;SDS011;23686;49.828;8.702;2023-01-10T09:58:57;9.53;;;2.97;;
37845;SDS011;23686;49.828;8.702;2023-01-10T10:01:28;8.65;;;2.50;;
37845;SDS011;23686;49.828;8.702;2023-01-10T10:04:13;11.63;;;3.40;;
37845;SDS011;23686;49.828;8.702;2023-01-10T10:06:47;11.98;;;2.85;;
37845;SDS011;23686;49.828;8.702;2023-01-10T10:09:14;17.63;;;3.25;;
37845;SDS011;23686;49.828;8.702;2023-01-10T10:34:12;13.48;;;2.78;;
37845;SDS011;23686;49.828;8.702;2023-01-10T10:36:54;16.67;;;3.20;;
37845;SDS011;23686;49.828;8.702;2023-01-10T10:39:24;12.95;;;3.47;;
37845;SDS011;23686;49.828;8.702;2023-01-10T10:41:58;9.70;;;3.05;;
37845;SDS011;23686;49.828;8.702;2023-01-10T10:47:21;12.38;;;3.58;;
37845;SDS011;23686;49.828;8.702;2023-01-10T10:49:58;11.75;;;3.33;;
37845;SDS011;23686;49.828;8.702;2023-01-10T10:52:36;10.65;;;3.08;;
37845;SDS011;23686;49.828;8.702;2023-01-10T10:55:02;8.02;;;2.90;;
37845;SDS011;23686;49.828;8.702;2023-01-10T10:57:30;9.82;;;3.42;;
37845;SDS011;23686;49.828;8.702;2023-01-10T10:59:59;11.70;;;3.42;;
37845;SDS011;23686;49.828;8.702;2023-01-10T11:02:28;13.60;;;3.13;;
37845;SDS011;23686;49.828;8.702;2023-01-10T11:05:02;10.23;;;3.20;;
37845;SDS011;23686;49.828;8.702;2023-01-10T11:07:32;11.75;;;3.33;;
37845;SDS011;23686;49.828;8.702;2023-01-10T11:09:59;10.13;;;4.07;;
37845;SDS011;23686;49.828;8.702;2023-01-10T11:12:45;15.15;;;4.13;;
37845;SDS011;23686;49.828;8.702;2023-01-10T11:15:34;10.77;;;3.03;;
37845;SDS011;23686;49.828;8.702;2023-01-10T11:18:04;13.50;;;3.08;;
37845;SDS011;23686;49.828;8.702;2023-01-10T11:20:31;12.52;;;2.95;;
37845;SDS011;23686;49.828;8.702;2023-01-10T11:22:57;10.27;;;3.50;;
37845;SDS011;23686;49.828;8.702;2023-01-10T11:25:23;15.57;;;3.58;;
37845;SDS011;23686;49.828;8.702;2023-01-10T11:32:53;14.10;;;3.45;;
37845;SDS011;23686;49.828;8.702;2023-01-10T11:35:25;17.55;;;3.20;;
37845;SDS011;23686;49.828;8.702;2023-01-10T11:37:58;18.10;;;3.95;;
37845;SDS011;23686;49.828;8.702;2023-01-10T11:41:26;16.65;;;4.15;;
37845;SDS011;23686;49.828;8.702;2023-01-10T11:43:40;21.57;;;4.83;;
37845;SDS011;23686;49.828;8.702;2023-01-10T11:46:13;15.30;;;4.40;;
37845;SDS011;23686;49.828;8.702;2023-01-10T11:51:18;14.27;;;4.15;;
37845;SDS011;23686;49.828;8.702;2023-01-10T11:54:00;14.70;;;5.10;;
37845;SDS011;23686;49.828;8.702;2023-01-10T11:56:29;17.50;;;4.45;;
37845;SDS011;23686;49.828;8.702;2023-01-10T11:58:58;12.48;;;3.78;;
37845;SDS011;23686;49.828;8.702;2023-01-10T12:01:42;15.25;;;4.43;;
37845;SDS011;23686;49.828;8.702;2023-01-10T12:04:22;15.20;;;4.38;;
37845;SDS011;23686;49.828;8.702;2023-01-10T12:06:51;16.30;;;4.65;;
37845;SDS011;23686;49.828;8.702;2023-01-10T12:12:05;14.93;;;3.25;;
37845;SDS011;23686;49.828;8.702;2023-01-10T12:14:40;9.05;;;2.72;;
37845;SDS011;23686;49.828;8.702;2023-01-10T12:17:09;12.25;;;3.63;;
37845;SDS011;23686;49.828;8.702;2023-01-10T12:19:42;14.40;;;4.50;;
37845;SDS011;23686;49.828;8.702;2023-01-10T12:22:08;22.38;;;3.60;;
37845;SDS011;23686;49.828;8.702;2023-01-10T12:24:39;11.65;;;3.55;;
37845;SDS011;23686;49.828;8.702;2023-01-10T12:27:13;16.02;;;3.17;;
37845;SDS011;23686;49.828;8.702;2023-01-10T12:29:42;9.75;;;3.25;;
37845;SDS011;23686;49.828;8.702;2023-01-10T12:32:18;18.13;;;4.03;;
37845;SDS011;23686;49.828;8.702;2023-01-10T12:34:49;11.13;;;3.15;;
37845;SDS011;23686;49.828;8.702;2023-01-10T12:43:00;12.77;;;3.10;;
37845;SDS011;23686;49.828;8.702;2023-01-10T12:45:58;11.65;;;3.42;;
37845;SDS011;23686;49.828;8.702;2023-01-10T12:51:22;17.67;;;3.45;;
37845;SDS011;23686;49.828;8.702;2023-01-10T12:53:52;12.75;;;3.92;;
37845;SDS011;23686;49.828;8.702;2023-01-10T12:56:22;15.13;;;4.38;;
37845;SDS011;23686;49.828;8.702;2023-01-10T12:58:49;17.25;;;5.65;;
37845;SDS011;23686;49.828;8.702;2023-01-10T13:01:21;9.75;;;3.63;;
37845;SDS011;23686;49.828;8.702;2023-01-10T13:03:57;13.88;;;3.25;;
37845;SDS011;23686;49.828;8.702;2023-01-10T13:06:31;14.48;;;3.50;;
37845;SDS011;23686;49.828;8.702;2023-01-10T13:08:59;14.13;;;3.08;;
37845;SDS011;23686;49.828;8.702;2023-01-10T13:11:43;13.57;;;3.15;;
37845;SDS011;23686;49.828;8.702;2023-01-10T13:14:40;16.95;;;3.47;;
37845;SDS011;23686;49.828;8.702;2023-01-10T13:17:23;15.90;;;3.38;;
37845;SDS011;23686;49.828;8.702;2023-01-10T13:22:41;12.75;;;2.50;;
37845;SDS011;23686;49.828;8.702;2023-01-10T13:27:55;16.75;;;2.88;;
37845;SDS011;23686;49.828;8.702;2023-01-10T13:30:32;18.02;;;3.05;;
37845;SDS011;23686;49.828;8.702;2023-01-10T13:35:48;12.80;;;3.03;;
37845;SDS011;23686;49.828;8.702;2023-01-10T13:38:17;9.95;;;2.85;;
37845;SDS011;23686;49.828;8.702;2023-01-10T13:48:41;15.95;;;2.78;;
37845;SDS011;23686;49.828;8.702;2023-01-10T13:51:27;10.68;;;2.47;;
37845;SDS011;23686;49.828;8.702;2023-01-10T13:53:59;13.43;;;3.00;;
37845;SDS011;23686;49.828;8.702;2023-01-10T13:56:29;17.00;;;3.47;;
37845;SDS011;23686;49.828;8.702;2023-01-10T13:59:03;16.75;;;3.45;;
37845;SDS011;23686;49.828;8.702;2023-01-10T14:01:53;14.77;;;2.90;;
37845;SDS011;23686;49.828;8.702;2023-01-10T14:04:50;12.02;;;3.28;;
37845;SDS011;23686;49.828;8.702;2023-01-10T14:07:25;15.43;;;3.55;;
37845;SDS011;23686;49.828;8.702;2023-01-10T14:10:05;19.42;;;4.07;;
37845;SDS011;23686;49.828;8.702;2023-01-10T14:12:34;13.87;;;3.10;;
37845;SDS011;23686;49.828;8.702;2023-01-10T14:15:19;19.55;;;3.88;;
37845;SDS011;23686;49.828;8.702;2023-01-10T14:17:59;12.38;;;3.30;;
37845;SDS011;23686;49.828;8.702;2023-01-10T14:20:31;15.23;;;3.22;;
37845;SDS011;23686;49.828;8.702;2023-01-10T14:23:06;14.70;;;3.35;;
37845;SDS011;23686;49.828;8.702;2023-01-10T14:25:50;16.20;;;4.13;;
37845;SDS011;23686;49.828;8.702;2023-01-10T14:28:25;18.98;;;3.50;;
37845;SDS011;23686;49.828;8.702;2023-01-10T14:33:29;14.77;;;3.33;;
37845;SDS011;23686;49.828;8.702;2023-01-10T14:35:57;16.38;;;3.50;;
37845;SDS011;23686;49.828;8.702;2023-01-10T14:38:27;14.48;;;3.78;;
37845;SDS011;23686;49.828;8.702;2023-01-10T14:40:56;15.48;;;4.25;;
37845;SDS011;23686;49.828;8.702;2023-01-10T14:43:26;16.00;;;3.13;;
37845;SDS011;23686;49.828;8.702;2023-01-10T14:48:34;13.13;;;3.70;;
37845;SDS011;23686;49.828;8.702;2023-01-10T14:53:58;11.00;;;3.17;;
37845;SDS011;23686;49.828;8.702;2023-01-10T14:58:50;22.25;;;3.45;;
37845;SDS011;23686;49.828;8.702;2023-01-10T15:01:19;10.65;;;3.38;;
37845;SDS011;23686;49.828;8.702;2023-01-10T15:03:50;13.27;;;3.10;;
37845;SDS011;23686;49.828;8.702;2023-01-10T15:06:18;10.73;;;2.85;;
37845;SDS011;23686;49.828;8.702;2023-01-10T15:08:43;21.27;;;5.05;;
37845;SDS011;23686;49.828;8.702;2023-01-10T15:11:09;17.23;;;4.90;;
37845;SDS011;23686;49.828;8.702;2023-01-10T15:13:40;16.13;;;3.70;;
37845;SDS011;23686;49.828;8.702;2023-01-10T15:16:20;13.73;;;3.58;;
37845;SDS011;23686;49.828;8.702;2023-01-10T15:18:47;8.57;;;2.58;;
37845;SDS011;23686;49.828;8.702;2023-01-10T15:21:14;7.68;;;2.50;;
37845;SDS011;23686;49.828;8.702;2023-01-10T15:23:43;18.90;;;3.28;;
37845;SDS011;23686;49.828;8.702;2023-01-10T15:26:11;14.80;;;3.53;;
37845;SDS011;23686;49.828;8.702;2023-01-10T15:28:44;15.13;;;3.22;;
37845;SDS011;23686;49.828;8.702;2023-01-10T15:31:13;14.10;;;3.25;;
37845;SDS011;23686;49.828;8.702;2023-01-10T15:33:44;18.02;;;3.15;;
37845;SDS011;23686;49.828;8.702;2023-01-10T15:38:41;14.70;;;2.92;;
37845;SDS011;23686;49.828;8.702;2023-01-10T15:41:08;13.13;;;2.13;;
37845;SDS011;23686;49.828;8.702;2023-01-10T15:43:40;14.07;;;2.90;;
37845;SDS011;23686;49.828;8.702;2023-01-10T15:46:05;14.38;;;3.08;;
37845;SDS011;23686;49.828;8.702;2023-01-10T15:48:52;15.38;;;3.63;;
37845;SDS011;23686;49.828;8.702;2023-01-10T15:51:29;12.70;;;3.42;;
37845;SDS011;23686;49.828;8.702;2023-01-10T15:54:00;13.50;;;3.55;;
37845;SDS011;23686;49.828;8.702;2023-01-10T15:59:27;15.23;;;3.47;;
37845;SDS011;23686;49.828;8.702;2023-01-10T16:04:34;14.80;;;3.85;;
37845;SDS011;23686;49.828;8.702;2023-01-10T16:07:20;7.22;;;2.78;;
37845;SDS011;23686;49.828;8.702;2023-01-10T16:09:52;9.73;;;2.92;;
37845;SDS011;23686;49.828;8.702;2023-01-10T16:12:31;12.55;;;3.03;;
37845;SDS011;23686;49.828;8.702;2023-01-10T16:15:19;12.93;;;3.47;;
37845;SDS011;23686;49.828;8.702;2023-01-10T16:17:50;11.95;;;2.78;;
37845;SDS011;23686;49.828;8.702;2023-01-10T16:20:17;10.60;;;2.60;;
37845;SDS011;23686;49.828;8.702;2023-01-10T16:23:03;10.68;;;2.95;;
37845;SDS011;23686;49.828;8.702;2023-01-10T16:25:37;16.40;;;3.97;;
37845;SDS011;23686;49.828;8.702;2023-01-10T16:28:04;14.13;;;2.97;;
37845;SDS011;23686;49.828;8.702;2023-01-10T16:30:33;10.13;;;2.42;;
37845;SDS011;23686;49.828;8.702;2023-01-10T16:33:01;13.43;;;2.90;;
37845;SDS011;23686;49.828;8.702;2023-01-10T16:35:34;14.55;;;3.50;;
37845;SDS011;23686;49.828;8.702;2023-01-10T16:38:00;16.73;;;4.20;;
37845;SDS011;23686;49.828;8.702;2023-01-10T16:40:28;6.72;;;3.30;;
37845;SDS011;23686;49.828;8.702;2023-01-10T16:42:59;13.15;;;2.97;;
37845;SDS011;23686;49.828;8.702;2023-01-10T16:45:45;6.75;;;2.92;;
37845;SDS011;23686;49.828;8.702;2023-01-10T16:48:12;14.68;;;2.90;;
37845;SDS011;23686;49.828;8.702;2023-01-10T16:50:39;8.93;;;2.50;;
37845;SDS011;23686;49.828;8.702;2023-01-10T16:53:05;11.70;;;2.88;;
37845;SDS011;23686;49.828;8.702;2023-01-10T16:55:39;14.07;;;3.13;;
37845;SDS011;23686;49.828;8.702;2023-01-10T16:58:07;7.57;;;2.78;;
37845;SDS011;23686;49.828;8.702;2023-01-10T17:00:34;8.07;;;2.47;;
37845;SDS011;23686;49.828;8.702;2023-01-10T17:03:22;8.15;;;2.55;;
37845;SDS011;23686;49.828;8.702;2023-01-10T17:05:47;8.68;;;3.80;;
37845;SDS011;23686;49.828;8.702;2023-01-10T17:08:22;9.77;;;2.67;;
37845;SDS011;23686;49.828;8.702;2023-01-10T17:10:50;7.10;;;2.75;;
37845;SDS011;23686;49.828;8.702;2023-01-10T17:13:24;14.38;;;5.15;;
37845;SDS011;23686;49.828;8.702;2023-01-10T17:15:52;14.27;;;6.32;;
37845;SDS011;23686;49.828;8.702;2023-01-10T17:18:18;8.88;;;2.60;;
37845;SDS011;23686;49.828;8.702;2023-01-10T17:20:43;8.63;;;2.28;;
37845;SDS011;23686;49.828;8.702;2023-01-10T17:23:09;13.73;;;4.57;;
37845;SDS011;23686;49.828;8.702;2023-01-10T17:25:36;8.02;;;3.08;;
37845;SDS011;23686;49.828;8.702;2023-01-10T17:28:02;9.60;;;2.78;;
37845;SDS011;23686;49.828;8.702;2023-01-10T17:30:28;7.72;;;2.50;;
37845;SDS011;23686;49.828;8.702;2023-01-10T17:32:54;12.45;;;2.75;;
37845;SDS011;23686;49.828;8.702;2023-01-10T17:35:19;5.65;;;2.47;;
37845;SDS011;23686;49.828;8.702;2023-01-10T17:37:49;9.57;;;2.78;;
37845;SDS011;23686;49.828;8.702;2023-01-10T17:42:40;6.30;;;2.63;;
37845;SDS011;23686;49.828;8.702;2023-01-10T17:45:06;7.82;;;3.42;;
37845;SDS011;23686;49.828;8.702;2023-01-10T17:47:32;14.77;;;3.20;;
37845;SDS011;23686;49.828;8.702;2023-01-10T17:49:57;8.57;;;2.70;;
37845;SDS011;23686;49.828;8.702;2023-01-10T17:52:23;11.23;;;2.72;;
37845;SDS011;23686;49.828;8.702;2023-01-10T17:54:48;7.30;;;2.35;;
37845;SDS011;23686;49.828;8.702;2023-01-10T17:57:14;6.95;;;2.25;;
37845;SDS011;23686;49.828;8.702;2023-01-10T17:59:40;8.65;;;2.15;;
37845;SDS011;23686;49.828;8.702;2023-01-10T18:02:07;8.55;;;3.08;;
37845;SDS011;23686;49.828;8.702;2023-01-10T18:04:39;6.72;;;2.35;;
37845;SDS011;23686;49.828;8.702;2023-01-10T18:07:05;6.25;;;2.67;;
37845;SDS011;23686;49.828;8.702;2023-01-10T18:09:31;11.48;;;3.45;;